Racecast

Huntington North Invitational

Huntington North High School · 5000m · Girls · Varsity · 2015-08-22 · IN

Course difficulty: +0.018

Race-day weather: 73°F · wind 25 mph · humidity 55%

View full meet →

Team scores

Place Team Points 12345 67
1 Carroll (Fort Wayne) (IN) 48 2 6 8 14 18 27 58
2 Warsaw Community (IN) 59 4 7 12 17 19 29 41
3 Homestead (IN) 83 3 15 16 21 28 34 39
4 Northridge (IN) 106 9 11 25 26 35 45 52
5 East Noble (IN) 183 5 24 43 47 64 76 95
6 Oak Hill (IN) 185 22 30 38 46 49 84 90
7 Huntington North (IN) 204 10 33 50 51 60 69 77
8 Dekalb (IN) 220 1 13 40 81 85 88 91
9 Fort Wayne Bishop Dwenger (IN) 238 37 42 48 54 57 61 74
10 Columbia City (IN) 296 20 59 62 63 92 120
11 Fort Wayne North Side (IN) 319 36 44 56 72 111 112 114
12 Norwell (IN) 331 23 65 70 86 87 96 103
13 Fort Wayne Concordia Lutheran (IN) 366 32 78 79 80 97 98 121
14 West Noble (IN) 407 53 67 68 106 113 116
15 Leo (IN) 408 31 73 75 107 122 123 124
16 Fort Wayne Northrop (IN) 415 55 66 82 104 108 110 118
17 Angola (IN) 451 71 83 93 99 105 117 119
18 Lafayette Jefferson (IN) 486 89 94 100 101 102 109 115

As scored by the meet.

Results

Place Athlete Grade School Time Rating Points
1 Tyler Schwartz 10 Dekalb (IN) 1 18:49.7 SR 133.5 1
2 Madison Fruchey 12 Carroll (Fort Wayne) (IN) 1 18:58.4 SR 132.5 2
3 Grace Walther 12 Homestead (WI) 1 19:01.4 PR 132.1 3
4 Allison Miller 11 Warsaw Community (IN) 1 19:25 SR 129.4 4
5 Kayla McCulloch 9 East Noble (IN) 1 19:26.7 PR 129.2 5
6 Abby Green 9 Carroll (Fort Wayne) (IN) 2 19:31.8 PR 128.7 6
7 Mia Beckham 10 Warsaw Community (IN) 2 19:44 PR 127.4 7
8 Leah Metzger 10 Carroll (Fort Wayne) (IN) 3 19:45.4 PR 127.2 8
9 Morgan Blyly 12 Northridge (IN) 1 19:45.8 SR 127.2 9
10 Hannah Stoffel 12 Huntington North (IN) 1 19:52.5 SR 126.4 10
11 Jenna Miller 10 Northridge (IN) 2 19:58.2 PR 125.8 11
12 Hannah Dawson 12 Warsaw Community (IN) 3 20:03.1 SR 125.3 12
13 Lauren Beckmann 10 Dekalb (IN) 2 20:05 SR 125.1 13
14 Maggie Falater 10 Carroll (Fort Wayne) (IN) 4 20:08.1 SR 124.8 14
15 Kelsey Batt 11 Homestead (WI) 2 20:09.3 SR 124.7 15
16 Saige Norris 10 Homestead (WI) 3 20:15.5 SR 124.1 16
17 Anna Craig 11 Warsaw Community (IN) 4 20:18.8 SR 123.7 17
18 Meagan Hathaway 9 Carroll (Fort Wayne) (IN) 5 20:21.5 PR 123.4 18
19 Charlene Orr 11 Warsaw Community (IN) 5 20:24.9 PR 123.1 19
20 Hannah Wappas 12 Columbia City (IN) 1 20:34.1 SR 122.2 20
21 Madison Distelrath 11 Homestead (WI) 4 20:34.1 SR 122.2 21
22 Margo Hornocker 10 Oak Hill (IN) 1 20:34.5 SR 122.2 22
23 Megan Theismann 11 Norwell (MA) 1 20:34.9 SR 122.1 23
24 Riley Welch 11 Fremont (MI) 1 20:36.3 SR 122.0
25 Kara Kline 10 East Noble (IN) 2 20:37.5 PR 121.8 24
26 Mackenzie Adams 10 Northridge (IN) 3 20:39.8 SR 121.6 25
27 Mariah King 11 Northridge (IN) 4 20:39.8 SR 121.6 26
28 Allison Thomas 11 Carroll (Fort Wayne) (IN) 6 20:44.5 SR 121.2 27
29 Abby Smith 9 Homestead (WI) 5 20:46.5 PR 121.0 28
30 Emma Hayward 12 Warsaw Community (IN) 6 20:48.3 SR 120.8 29
31 Brooke Hasty 12 Oak Hill (IN) 2 20:49.2 SR 120.7 30
32 Lindsey Marriott 11 Leo (IN) 1 20:53 SR 120.3 31
33 Hannah Martin 11 Fort Wayne Concordia Lutheran (IN) 1 20:57.2 SR 119.9 32
34 Marissa Jamison 12 Huntington North (IN) 2 20:59.3 SR 119.7 33
35 Evonne Bultemeyer 11 Homestead (WI) 6 21:04.5 SR 119.2 34
36 Julia Folland 12 Churubusco (IN) 1 21:13.9 SR 118.4
37 McKenzie Love 11 Northridge (IN) 5 21:16.6 SR 118.1 35
38 Makyla Wilchar 9 Fort Wayne North Side (IN) 1 21:17.2 PR 118.1 36
39 Megan Brelage 12 Fort Wayne Bishop Dwenger (IN) 1 21:18.3 SR 118.0 37
40 Jenessa Hasty 9 Oak Hill (IN) 3 21:19.9 PR 117.8 38
41 Nikki Wilson 12 Fort Wayne Wayne (IN) 1 21:20.2 SR 117.8
42 Hannah Johanningsmeier 11 Homestead (WI) 7 21:21 SR 117.7 39
43 Krista McCormick 12 Dekalb (IN) 3 21:23.9 SR 117.4 40
44 Lauren Orr 11 Warsaw Community (IN) 7 21:29.1 SR 117.0 41
45 Abigail Brelage 11 Fort Wayne Bishop Dwenger (IN) 2 21:33.6 SR 116.6 42
46 Olivia Smolinske 9 East Noble (IN) 3 21:33.7 PR 116.6 43
47 Chaelynn Wilchar 9 Fort Wayne North Side (IN) 2 21:41.2 PR 115.9 44
48 Jamie Zeigler 9 Churubusco (IN) 2 21:42 PR 115.8
49 Katelyn Kilmer 12 Northridge (IN) 6 21:43.1 PR 115.7 45
50 Camille Taylor 10 Oak Hill (IN) 4 21:48.3 SR 115.3 46
51 Kyra Warren 10 East Noble (IN) 4 21:51 SR 115.0 47
52 Alexandria Ebetino 9 Fort Wayne Bishop Dwenger (IN) 3 21:53.9 PR 114.8 48
53 Savannah Hart 10 Oak Hill (IN) 5 21:59.5 SR 114.3 49
54 Alena Miller 9 Huntington North (IN) 3 22:12.4 PR 113.2 50
55 Alexis Grider 10 Fort Wayne South Side (IN) 1 22:17.1 SR
56 Kyler Hoopingarner 9 Huntington North (IN) 4 22:19.9 PR 112.5 51
57 Molly Campbell 10 Northridge (IN) 7 22:20.6 SR 112.5 52
58 Morgan Plank 9 West Noble (IN) 1 22:24.9 PR 112.1 53
59 Olivia Groves 12 Fort Wayne Bishop Dwenger (IN) 4 22:25.6 PR 112.1 54
60 Patricia Giraldo 11 Fort Wayne Northrop (IN) 1 22:28.9 PR 111.8 55
61 Emma Curry 10 Fort Wayne North Side (IN) 3 22:31.1 SR 111.6 56
62 Caroline McMasters 12 Fort Wayne Bishop Dwenger (IN) 5 22:31.3 SR 111.6 57
63 Mia Depillo 12 Carroll (Fort Wayne) (IN) 7 22:34.8 SR 111.3 58
64 Natalia Johnson 12 Columbia City (IN) 2 22:34.9 111.3 59
65 Cadee Harmon 11 Huntington North (IN) 5 22:41.4 SR 110.8 60
66 Olivia Wyatt 12 Fort Wayne Bishop Dwenger (IN) 6 22:43.8 SR 110.6 61
67 Lauren Keller 10 Columbia City (IN) 3 22:46.4 SR 110.4 62
68 Bailie Brown 10 Columbia City (IN) 4 22:50.7 110.0 63
69 Krista Boese 10 East Noble (IN) 5 22:53 PR 109.8 64
70 Kayla DeRemer 12 Norwell (MA) 2 22:57.8 SR 109.4 65
71 Lexi Gonzalez 10 Fort Wayne Northrop (IN) 2 22:59.7 PR 109.3 66
72 Araceli Flores 11 West Noble (IN) 2 23:01 SR 109.2 67
73 Casey Wallen 10 West Noble (IN) 3 23:04.3 SR 108.9 68
74 Jenna Henline 11 Huntington North (IN) 6 23:04.6 SR 108.9 69
75 Akiko Watanabe 11 Norwell (MA) 3 23:06.2 PR 108.8 70
76 Kaitlyn Ditmars 10 Angola (IN) 1 23:07.1 SR 108.7 71
77 Ariel Derrick 12 Fort Wayne North Side (IN) 4 23:08.4 SR 108.6 72
78 Lauren Goldman 12 Leo (IN) 2 23:14.1 SR 108.2 73
79 Caroline Miller 9 Fort Wayne Bishop Dwenger (IN) 7 23:14.8 PR 108.1 74
80 Katie Hamilton 12 Leo (IN) 3 23:20.4 SR 107.7 75
81 Jessica Vandiver 11 East Noble (IN) 6 23:21.3 SR 107.6 76
82 Chloe Scheiber 10 Huntington North (IN) 7 23:24.1 SR 107.4 77
83 Abigail Bentz 11 Fort Wayne Concordia Lutheran (IN) 2 23:24.7 PR 107.3 78
84 Natalie Witmer 9 Fort Wayne Concordia Lutheran (IN) 3 23:25 PR 107.3 79
85 Alaina Stellwagen 11 Fort Wayne Concordia Lutheran (IN) 4 23:32 SR 106.8 80
86 Kayla Daniels 11 Dekalb (IN) 4 23:33.2 PR 106.7 81
87 Miah DelVecchio 9 Fremont (MI) 2 23:34.4 PR 106.6
88 Yegee Kim 12 Fort Wayne Northrop (IN) 3 23:35.4 PR 106.5 82
89 Madalynn Mendez 9 Angola (IN) 2 23:39.6 PR 106.2 83
90 Lorraine Gamble 12 Oak Hill (IN) 6 23:48 SR 105.6 84
91 Claire Comfort 9 Dekalb (IN) 5 23:50.8 PR 105.4 85
92 Jessie Weirick 10 Norwell (MA) 4 23:51.3 PR 105.3 86
93 Hannah Worden 10 Norwell (MA) 5 23:57.5 PR 104.9 87
94 Kalie Rice 9 Dekalb (IN) 6 23:59.4 PR 104.8 88
95 Whitney Kinser 11 Lafayette Jefferson (IN) 1 24:00.7 SR 104.7 89
96 Elissa Austin 12 Oak Hill (IN) 7 24:01.1 SR 104.6 90
97 Aiden Smith 11 Dekalb (IN) 7 24:02 PR 104.6 91
98 Shay Trump 9 Columbia City (IN) 5 24:03.8 PR 104.4 92
99 Avrie Sauer 10 Angola (IN) 3 24:06.9 SR 104.2 93
100 Ashley Mikulaj 12 Lafayette Jefferson (IN) 2 24:12.5 SR 103.8 94
101 Lexie Moriarity 10 East Noble (IN) 7 24:13.4 PR 103.8 95
102 Grace Eastom 12 Norwell (MA) 6 24:14.1 SR 103.7 96
103 Haley Ulmer 9 Fort Wayne Concordia Lutheran (IN) 5 24:16 PR 103.6 97
104 Brianna Baughman 11 Fort Wayne Concordia Lutheran (IN) 6 24:19 SR 103.3 98
105 Natalie Roe 12 Angola (IN) 4 24:23.2 SR 103.1 99
106 Olivia Acher 9 Lafayette Jefferson (IN) 3 24:24.9 PR 102.9 100
107 Susie Harmon 11 Lafayette Jefferson (IN) 4 24:27.9 SR 102.7 101
108 Abbey Armstrong 11 Lafayette Jefferson (IN) 5 24:29.5 PR 102.6 102
109 Molly Burton 10 Norwell (MA) 7 24:30.4 SR 102.6 103
110 Madi Gueber 10 Fort Wayne Northrop (IN) 4 24:35.8 PR 102.2 104
111 Bailey Temple 9 Angola (IN) 5 24:38.6 PR 102.0 105
112 Katelyn Cox 10 West Noble (IN) 4 24:38.9 PR 102.0 106
113 Claire Greer 11 Leo (IN) 4 24:41.2 SR 101.8 107
114 Paige Geiger 11 Fort Wayne Northrop (IN) 5 24:53.9 SR 100.9 108
115 Yatzury Alvarez 10 Lafayette Jefferson (IN) 6 24:56.3 SR 100.8 109
116 Hayley Jensen 9 Fort Wayne Northrop (IN) 6 25:11 PR 99.8 110
117 Lakeisha Thieme 12 Fort Wayne North Side (IN) 5 25:27 SR 111
118 Serena Perez-Takaya 11 Fort Wayne North Side (IN) 6 25:30.4 PR 98.5 112
119 Heidi Zeigler 10 Churubusco (IN) 3 25:33.1 SR 98.4
120 Lexi Rosado 9 Fremont (MI) 3 25:37.5 PR
121 Yvette Rojas 12 West Noble (IN) 5 25:43.2 SR 97.7 113
122 Janaya Woehnker 11 Fort Wayne North Side (IN) 7 26:01.6 SR 96.6 114
123 Sara Hipsher 11 Lafayette Jefferson (IN) 7 26:25 SR 95.1 115
124 Maddie Leatherman 12 West Noble (IN) 6 26:29.9 SR 94.8 116
125 Emily Barge 12 Angola (IN) 6 26:49 SR 93.7 117
126 Tien Hoang 12 Fort Wayne Northrop (IN) 7 26:55.4 SR 93.3 118
127 Elizabeth Kolkman 9 Fort Wayne South Side (IN) 2 26:55.4 PR
128 Kennedy McCrea 10 Fremont (MI) 4 26:55.9 PR 93.3
129 Chloe Hutchins 9 Angola (IN) 7 27:07.4 PR 92.7 119
130 Isabel Hunter 10 Columbia City (IN) 6 27:14 SR 92.3 120
131 Michaela Sheets 10 Fort Wayne Concordia Lutheran (IN) 7 27:50.7 SR 90.3 121
132 Hannah Monnier 11 Leo (IN) 5 28:00.1 SR 89.8 122
133 Brein Gross 10 Churubusco (IN) 4 28:34.3 SR 88.0
134 Leah McClees 9 Leo (IN) 6 28:56.6 PR 86.8 123
135 Anna McGinnis 9 Fort Wayne South Side (IN) 3 29:05.5 PR 86.4
136 Michaela Sauer 11 Leo (IN) 7 30:15.3 SR 83.1 124
Something wrong on this page? Report it →